createdAt,value
2023-04-29T00:00:01.023Z,63.57
2023-04-29T00:01:01.191Z,63.47
2023-04-29T00:02:01.413Z,63.17
2023-04-29T00:03:01.724Z,63.27
2023-04-29T00:04:01.889Z,63.47
2023-04-29T00:05:02.124Z,63.98
2023-04-29T00:06:02.301Z,63.98
2023-04-29T00:07:02.263Z,64.07
2023-04-29T00:08:02.431Z,63.87
2023-04-29T00:09:02.612Z,64.07
2023-04-29T00:10:02.804Z,64.07
2023-04-29T00:11:02.973Z,63.98
2023-04-29T00:12:03.151Z,64.18
2023-04-29T00:13:03.324Z,63.98
2023-04-29T00:14:03.497Z,63.87
2023-04-29T00:15:03.681Z,64.28
2023-04-29T00:16:03.861Z,64.38
2023-04-29T00:17:04.045Z,64.48
2023-04-29T00:18:04.229Z,64.48
2023-04-29T00:19:04.377Z,64.38
2023-04-29T00:20:04.616Z,64.28
2023-04-29T00:21:04.733Z,64.38
2023-04-29T00:22:04.919Z,64.72
2023-04-29T00:23:05.096Z,64.51
2023-04-29T00:24:05.272Z,64.92
2023-04-29T00:25:05.464Z,64.72
2023-04-29T00:26:05.639Z,64.61
2023-04-29T00:27:05.823Z,64.89
2023-04-29T00:28:05.994Z,65.19
2023-04-29T00:29:06.157Z,65.90
2023-04-29T00:30:06.387Z,65.90
2023-04-29T00:31:06.560Z,65.90
2023-04-29T00:32:06.703Z,65.70
2023-04-29T00:33:06.895Z,65.80
2023-04-29T00:34:07.052Z,65.90
2023-04-29T00:35:07.254Z,65.50
2023-04-29T00:36:07.406Z,66.10
2023-04-29T00:37:07.599Z,66.50
2023-04-29T00:38:07.768Z,67.32
2023-04-29T00:39:07.948Z,67.32
2023-04-29T00:40:08.139Z,68.23
2023-04-29T00:41:08.318Z,67.62
2023-04-29T00:42:08.504Z,68.02
2023-04-29T00:43:08.702Z,68.84
2023-04-29T00:44:08.846Z,68.73
2023-04-29T00:45:09.026Z,69.68
2023-04-29T00:46:09.210Z,68.97
2023-04-29T00:47:09.383Z,69.17
2023-04-29T00:48:09.574Z,69.10
2023-04-29T00:49:09.697Z,69.81
2023-04-29T00:50:09.884Z,69.92
2023-04-29T00:51:10.078Z,70.25
2023-04-29T00:52:10.253Z,70.76
2023-04-29T00:53:10.433Z,70.45
2023-04-29T00:54:10.611Z,71.06
2023-04-29T00:55:10.801Z,70.96
2023-04-29T00:56:10.968Z,70.76
2023-04-29T00:57:11.161Z,71.57
2023-04-29T00:58:11.330Z,71.26
2023-04-29T00:59:11.495Z,71.26
2023-04-29T01:00:11.700Z,71.16
2023-04-29T01:01:11.907Z,71.37
2023-04-29T01:02:12.057Z,70.93
2023-04-29T01:03:12.342Z,70.93
2023-04-29T01:04:12.572Z,70.96
2023-04-29T01:05:12.605Z,70.83
2023-04-29T01:06:12.763Z,70.21
2023-04-29T01:07:12.941Z,70.83
2023-04-29T01:08:13.109Z,71.47
2023-04-29T01:09:13.284Z,71.16
2023-04-29T01:10:13.466Z,71.16
2023-04-29T01:11:13.640Z,71.16
2023-04-29T01:12:13.832Z,71.47
2023-04-29T01:13:14.007Z,71.67
2023-04-29T01:14:14.163Z,71.77
2023-04-29T01:15:14.358Z,71.88
2023-04-29T01:16:14.549Z,71.77
2023-04-29T01:17:14.721Z,72.08
2023-04-29T01:18:14.856Z,71.67
2023-04-29T01:19:15.043Z,71.88
2023-04-29T01:20:15.226Z,71.77
2023-04-29T01:21:15.380Z,71.88
2023-04-29T01:22:15.547Z,71.97
2023-04-29T01:23:15.767Z,72.17
2023-04-29T01:24:15.925Z,71.88
2023-04-29T01:25:16.124Z,71.97
2023-04-29T01:26:16.278Z,72.58
2023-04-29T01:27:16.459Z,71.88
2023-04-29T01:28:16.615Z,72.17
2023-04-29T01:29:16.801Z,72.58
2023-04-29T01:30:17.015Z,72.89
2023-04-29T01:31:17.212Z,72.68
2023-04-29T01:32:17.338Z,72.82
2023-04-29T01:33:17.510Z,72.72
2023-04-29T01:34:17.691Z,73.12
2023-04-29T01:35:17.878Z,73.02
2023-04-29T01:36:18.030Z,72.82
2023-04-29T01:37:18.198Z,73.22
2023-04-29T01:38:18.405Z,73.22
2023-04-29T01:39:18.585Z,73.12
2023-04-29T01:40:18.761Z,73.63
2023-04-29T01:41:18.940Z,72.61
2023-04-29T01:42:19.143Z,72.82
2023-04-29T01:43:19.320Z,72.72
2023-04-29T01:44:19.513Z,72.11
2023-04-29T01:45:19.679Z,72.17
2023-04-29T01:46:19.977Z,72.17
2023-04-29T01:47:20.044Z,72.78
2023-04-29T01:48:20.204Z,72.89
2023-04-29T01:49:20.398Z,72.78
2023-04-29T01:50:20.558Z,72.48
2023-04-29T01:51:20.772Z,72.28
2023-04-29T01:52:20.891Z,72.68
2023-04-29T01:53:21.096Z,72.28
2023-04-29T01:54:21.265Z,72.58
2023-04-29T01:55:21.436Z,72.55
2023-04-29T01:56:21.644Z,72.99
2023-04-29T01:57:21.777Z,72.55
2023-04-29T01:58:21.972Z,72.75
2023-04-29T01:59:22.120Z,72.34
2023-04-29T02:00:22.297Z,72.65
2023-04-29T02:01:22.563Z,72.96
2023-04-29T02:02:22.746Z,72.65
2023-04-29T02:03:22.933Z,72.34
2023-04-29T02:04:23.024Z,72.65
2023-04-29T02:05:23.130Z,73.16
2023-04-29T02:06:23.397Z,73.25
2023-04-29T02:07:23.501Z,72.75
2023-04-29T02:08:23.676Z,72.96
2023-04-29T02:09:23.842Z,73.36
2023-04-29T02:10:24.038Z,73.36
2023-04-29T02:11:24.262Z,72.55
2023-04-29T02:12:24.383Z,72.75
2023-04-29T02:13:24.557Z,72.34
2023-04-29T02:14:24.736Z,72.85
2023-04-29T02:15:24.908Z,73.05
2023-04-29T02:16:25.138Z,73.56
2023-04-29T02:17:25.261Z,73.25
2023-04-29T02:18:25.424Z,73.36
2023-04-29T02:19:25.625Z,72.75
2023-04-29T02:20:25.809Z,73.16
2023-04-29T02:21:25.992Z,72.85
2023-04-29T02:22:26.168Z,73.36
2023-04-29T02:23:26.328Z,72.96
2023-04-29T02:24:26.587Z,73.25
2023-04-29T02:25:26.704Z,73.16
2023-04-29T02:26:26.922Z,73.46
2023-04-29T02:27:27.062Z,73.22
2023-04-29T02:28:27.238Z,73.32
2023-04-29T02:29:27.408Z,73.22
2023-04-29T02:30:27.580Z,72.81
2023-04-29T02:31:27.801Z,72.61
2023-04-29T02:32:27.947Z,72.52
2023-04-29T02:33:28.052Z,72.21
2023-04-29T02:34:28.245Z,72.52
2023-04-29T02:35:28.450Z,72.41
2023-04-29T02:36:28.608Z,72.41
2023-04-29T02:37:28.753Z,72.81
2023-04-29T02:38:28.954Z,72.31
2023-04-29T02:39:29.112Z,72.31
2023-04-29T02:40:29.265Z,72.41
2023-04-29T02:41:29.420Z,72.61
2023-04-29T02:42:29.602Z,72.52
2023-04-29T02:43:29.786Z,72.52
2023-04-29T02:44:29.979Z,72.31
2023-04-29T02:45:30.193Z,71.77
2023-04-29T02:46:30.362Z,71.77
2023-04-29T02:47:30.505Z,71.88
2023-04-29T02:48:30.648Z,71.88
2023-04-29T02:49:30.839Z,72.17
2023-04-29T02:50:30.991Z,72.48
2023-04-29T02:51:31.236Z,72.28
2023-04-29T02:52:31.353Z,72.38
2023-04-29T02:53:31.528Z,72.48
2023-04-29T02:54:31.735Z,72.38
2023-04-29T02:55:31.871Z,72.28
2023-04-29T02:56:32.045Z,72.48
2023-04-29T02:57:32.292Z,72.68
2023-04-29T02:58:32.389Z,72.78
2023-04-29T02:59:32.592Z,72.08
2023-04-29T03:00:32.761Z,72.58
2023-04-29T03:01:33.011Z,72.58
2023-04-29T03:02:33.182Z,72.58
2023-04-29T03:03:33.398Z,72.88
2023-04-29T03:04:33.555Z,72.48
2023-04-29T03:05:33.660Z,72.17
2023-04-29T03:06:33.891Z,72.17
2023-04-29T03:07:34.020Z,72.58
2023-04-29T03:08:34.209Z,72.78
2023-04-29T03:09:34.410Z,72.78
2023-04-29T03:10:34.562Z,72.48
2023-04-29T03:11:34.751Z,72.58
2023-04-29T03:12:34.905Z,72.48
2023-04-29T03:13:35.068Z,73.09
2023-04-29T03:14:35.226Z,72.78
2023-04-29T03:15:35.421Z,72.38
2023-04-29T03:16:35.632Z,72.68
2023-04-29T03:17:35.816Z,72.08
2023-04-29T03:18:35.933Z,71.94
2023-04-29T03:19:36.101Z,72.44
2023-04-29T03:20:36.261Z,72.75
2023-04-29T03:21:36.427Z,72.24
2023-04-29T03:22:36.592Z,72.55
2023-04-29T03:23:36.770Z,72.44
2023-04-29T03:24:36.967Z,72.34
2023-04-29T03:25:37.235Z,72.44
2023-04-29T03:26:37.324Z,72.34
2023-04-29T03:27:37.491Z,71.73
2023-04-29T03:28:37.681Z,72.04
2023-04-29T03:29:37.856Z,72.34
2023-04-29T03:30:38.009Z,72.75
2023-04-29T03:31:38.239Z,72.55
2023-04-29T03:32:38.441Z,72.65
2023-04-29T03:33:38.536Z,72.04
2023-04-29T03:34:38.735Z,71.94
2023-04-29T03:35:39.098Z,72.24
2023-04-29T03:36:39.109Z,72.24
2023-04-29T03:37:39.318Z,72.31
2023-04-29T03:38:39.403Z,72.61
2023-04-29T03:39:39.617Z,72.31
2023-04-29T03:40:39.767Z,72.72
2023-04-29T03:41:39.905Z,72.61
2023-04-29T03:42:40.100Z,72.01
2023-04-29T03:43:40.249Z,72.41
2023-04-29T03:44:40.442Z,72.11
2023-04-29T03:45:40.635Z,72.01
2023-04-29T03:46:40.842Z,72.11
2023-04-29T03:47:41.001Z,72.01
2023-04-29T03:48:41.177Z,72.41
2023-04-29T03:49:41.348Z,72.41
2023-04-29T03:50:41.544Z,72.31
2023-04-29T03:51:41.667Z,72.21
2023-04-29T03:52:41.877Z,72.21
2023-04-29T03:53:42.053Z,71.91
2023-04-29T03:54:42.222Z,71.91
2023-04-29T03:55:42.557Z,72.11
2023-04-29T03:56:42.577Z,71.91
2023-04-29T03:57:42.869Z,71.97
2023-04-29T03:58:42.937Z,71.87
2023-04-29T03:59:43.081Z,71.67
2023-04-29T04:00:43.281Z,71.87
2023-04-29T04:01:43.425Z,71.67
2023-04-29T04:02:43.685Z,71.77
2023-04-29T04:03:43.937Z,71.97
2023-04-29T04:04:44.298Z,71.47
2023-04-29T04:05:44.116Z,71.87
2023-04-29T04:06:44.290Z,71.77
2023-04-29T04:07:44.422Z,71.87
2023-04-29T04:08:44.626Z,71.37
2023-04-29T04:09:44.761Z,71.67
2023-04-29T04:10:44.930Z,71.87
2023-04-29T04:11:45.102Z,71.77
2023-04-29T04:12:45.264Z,71.87
2023-04-29T04:13:45.464Z,71.47
2023-04-29T04:14:45.600Z,71.87
2023-04-29T04:15:45.763Z,71.57
2023-04-29T04:16:45.979Z,71.57
2023-04-29T04:17:46.120Z,71.37
2023-04-29T04:18:46.304Z,71.87
2023-04-29T04:19:46.439Z,71.77
2023-04-29T04:20:46.626Z,72.08
2023-04-29T04:21:46.787Z,71.64
2023-04-29T04:22:46.964Z,71.64
2023-04-29T04:23:47.149Z,71.53
2023-04-29T04:24:47.319Z,71.84
2023-04-29T04:25:47.506Z,71.94
2023-04-29T04:26:47.687Z,71.64
2023-04-29T04:27:47.829Z,71.64
2023-04-29T04:28:48.004Z,71.53
2023-04-29T04:29:48.186Z,71.94
2023-04-29T04:30:48.349Z,71.64
2023-04-29T04:31:48.599Z,71.73
2023-04-29T04:32:48.737Z,71.64
2023-04-29T04:33:48.908Z,71.53
2023-04-29T04:34:49.055Z,71.84
2023-04-29T04:35:49.234Z,71.84
2023-04-29T04:36:49.405Z,71.73
2023-04-29T04:37:49.573Z,71.84
2023-04-29T04:38:49.761Z,71.64
2023-04-29T04:39:50.054Z,71.33
2023-04-29T04:40:50.075Z,71.64
2023-04-29T04:41:50.275Z,71.94
2023-04-29T04:42:50.450Z,71.44
2023-04-29T04:43:50.616Z,71.53
2023-04-29T04:44:50.785Z,71.33
2023-04-29T04:45:50.979Z,71.53
2023-04-29T04:46:51.111Z,71.53
2023-04-29T04:47:51.307Z,71.44
2023-04-29T04:48:51.484Z,71.64
2023-04-29T04:49:51.789Z,71.33
2023-04-29T04:50:51.813Z,71.23
2023-04-29T04:51:51.997Z,71.84
2023-04-29T04:52:52.164Z,71.64
2023-04-29T04:53:52.332Z,71.73
2023-04-29T04:54:52.504Z,71.73
2023-04-29T04:55:52.666Z,71.73
2023-04-29T04:56:52.892Z,71.64
2023-04-29T04:57:53.013Z,71.94
2023-04-29T04:58:53.181Z,71.44
2023-04-29T04:59:53.669Z,71.64
2023-04-29T05:00:53.586Z,71.53
2023-04-29T05:01:53.739Z,71.60
2023-04-29T05:02:53.996Z,71.70
2023-04-29T05:03:54.124Z,71.70
2023-04-29T05:04:54.212Z,72.00
2023-04-29T05:05:54.408Z,72.00
2023-04-29T05:06:54.559Z,72.00
2023-04-29T05:07:54.718Z,71.91
2023-04-29T05:08:54.895Z,72.14
2023-04-29T05:09:55.066Z,72.24
2023-04-29T05:10:55.258Z,72.34
2023-04-29T05:11:55.398Z,72.14
2023-04-29T05:12:55.581Z,72.14
2023-04-29T05:13:55.756Z,71.91
2023-04-29T05:14:55.926Z,71.91
2023-04-29T05:15:56.095Z,71.70
2023-04-29T05:16:56.327Z,71.80
2023-04-29T05:17:56.459Z,71.60
2023-04-29T05:18:56.657Z,71.50
2023-04-29T05:19:56.782Z,71.80
2023-04-29T05:20:56.983Z,72.11
2023-04-29T05:21:57.262Z,71.91
2023-04-29T05:22:57.302Z,71.70
2023-04-29T05:23:57.474Z,72.11
2023-04-29T05:24:57.641Z,71.60
2023-04-29T05:25:57.948Z,71.40
2023-04-29T05:26:57.991Z,71.60
2023-04-29T05:27:58.159Z,72.00
2023-04-29T05:28:58.316Z,72.00
2023-04-29T05:29:58.484Z,71.60
2023-04-29T05:30:58.743Z,71.70
2023-04-29T05:31:58.812Z,71.57
2023-04-29T05:32:59.035Z,71.70
2023-04-29T05:33:59.164Z,71.80
2023-04-29T05:34:59.346Z,71.70
2023-04-29T05:35:59.507Z,71.70
2023-04-29T05:36:59.681Z,71.91
2023-04-29T05:37:59.853Z,71.60
2023-04-29T05:39:00.090Z,72.00
2023-04-29T05:40:00.219Z,71.70
2023-04-29T05:41:00.407Z,71.77
2023-04-29T05:42:00.570Z,71.77
2023-04-29T05:43:00.725Z,71.57
2023-04-29T05:44:00.898Z,71.57
2023-04-29T05:45:01.058Z,71.17
2023-04-29T05:46:01.240Z,71.67
2023-04-29T05:47:01.395Z,71.57
2023-04-29T05:48:01.608Z,71.37
2023-04-29T05:49:01.778Z,71.57
2023-04-29T05:50:01.938Z,71.57
2023-04-29T05:51:02.128Z,71.47
2023-04-29T05:52:02.270Z,71.67
2023-04-29T05:53:02.465Z,71.37
2023-04-29T05:54:02.641Z,71.73
2023-04-29T05:55:02.861Z,71.64
2023-04-29T05:56:03.007Z,71.44
2023-04-29T05:57:03.176Z,71.44
2023-04-29T05:58:03.377Z,71.33
2023-04-29T05:59:03.537Z,71.44
2023-04-29T06:00:03.713Z,71.64
2023-04-29T06:01:03.869Z,71.44
2023-04-29T06:02:04.063Z,71.33
2023-04-29T06:03:04.414Z,71.33
2023-04-29T06:04:04.530Z,71.57
2023-04-29T06:05:04.918Z,71.37
2023-04-29T06:06:04.828Z,71.47
2023-04-29T06:07:04.946Z,71.47
2023-04-29T06:08:05.124Z,71.67
2023-04-29T06:09:10.824Z,71.77
2023-04-29T06:10:06.472Z,71.97
2023-04-29T06:11:05.633Z,71.97
2023-04-29T06:12:05.819Z,71.97
2023-04-29T06:13:05.996Z,72.17
2023-04-29T06:14:06.198Z,72.17
2023-04-29T06:15:06.371Z,72.17
2023-04-29T06:16:06.564Z,72.38
2023-04-29T06:17:06.690Z,72.38
2023-04-29T06:18:07.005Z,72.38
2023-04-29T06:19:07.058Z,72.38
2023-04-29T06:20:07.258Z,72.68
2023-04-29T06:21:07.412Z,72.58
2023-04-29T06:22:07.621Z,72.58
2023-04-29T06:23:07.736Z,72.58
2023-04-29T06:24:07.952Z,72.38
2023-04-29T06:25:08.093Z,72.38
2023-04-29T06:26:08.266Z,72.61
2023-04-29T06:27:08.443Z,72.51
2023-04-29T06:28:08.679Z,72.61
2023-04-29T06:29:08.799Z,72.61
2023-04-29T06:30:08.991Z,72.81
2023-04-29T06:31:09.135Z,72.95
2023-04-29T06:32:09.480Z,73.25
2023-04-29T06:33:09.512Z,73.46
2023-04-29T06:34:09.657Z,73.66
2023-04-29T06:35:09.818Z,73.55
2023-04-29T06:36:09.996Z,73.46
2023-04-29T06:37:10.183Z,73.55
2023-04-29T06:38:10.369Z,73.46
2023-04-29T06:39:10.542Z,72.95
2023-04-29T06:40:10.691Z,72.95
2023-04-29T06:41:10.868Z,72.75
2023-04-29T06:42:11.050Z,72.64
2023-04-29T06:43:11.256Z,72.85
2023-04-29T06:44:11.431Z,72.75
2023-04-29T06:45:11.566Z,72.64
2023-04-29T06:46:11.737Z,72.41
2023-04-29T06:47:11.983Z,72.11
2023-04-29T06:48:12.480Z,72.11
2023-04-29T06:49:12.299Z,72.21
2023-04-29T06:50:12.445Z,72.21
2023-04-29T06:51:12.613Z,71.91
2023-04-29T06:52:12.790Z,72.00
2023-04-29T06:53:12.972Z,72.04
2023-04-29T06:54:13.154Z,72.04
2023-04-29T06:55:13.310Z,72.04
2023-04-29T06:56:14.570Z,71.94
2023-04-29T06:57:13.680Z,71.64
2023-04-29T06:58:13.859Z,71.73
2023-04-29T06:59:14.061Z,71.64
2023-04-29T07:00:14.197Z,71.53
2023-04-29T07:01:14.454Z,71.64
2023-04-29T07:02:14.577Z,71.87
2023-04-29T07:03:14.927Z,71.77
2023-04-29T07:04:14.994Z,72.08
2023-04-29T07:05:15.158Z,72.17
2023-04-29T07:06:15.290Z,71.97
2023-04-29T07:07:15.497Z,72.08
2023-04-29T07:08:15.663Z,71.97
2023-04-29T07:09:15.850Z,71.47
2023-04-29T07:10:16.028Z,71.47
2023-04-29T07:11:16.190Z,71.67
2023-04-29T07:12:16.369Z,71.53
2023-04-29T07:13:16.553Z,71.03
2023-04-29T07:14:16.744Z,70.62
2023-04-29T07:15:16.902Z,70.42
2023-04-29T07:16:17.137Z,70.73
2023-04-29T07:17:17.231Z,70.62
2023-04-29T07:18:17.412Z,70.53
2023-04-29T07:19:17.606Z,70.73
2023-04-29T07:20:17.844Z,70.53
2023-04-29T07:21:17.923Z,70.32
2023-04-29T07:22:18.098Z,70.32
2023-04-29T07:23:18.268Z,70.53
2023-04-29T07:24:18.464Z,70.42
2023-04-29T07:25:18.600Z,69.95
2023-04-29T07:26:18.776Z,69.92
2023-04-29T07:27:18.953Z,69.95
2023-04-29T07:28:19.130Z,70.46
2023-04-29T07:29:19.329Z,70.46
2023-04-29T07:30:19.480Z,70.22
2023-04-29T07:31:19.712Z,70.22
2023-04-29T07:32:19.833Z,70.12
2023-04-29T07:33:20.001Z,69.92
2023-04-29T07:34:20.210Z,69.92
2023-04-29T07:35:20.361Z,69.92
2023-04-29T07:36:20.537Z,69.95
2023-04-29T07:37:20.722Z,69.55
2023-04-29T07:38:20.892Z,69.24
2023-04-29T07:39:21.098Z,69.55
2023-04-29T07:40:21.285Z,69.55
2023-04-29T07:41:21.454Z,69.65
2023-04-29T07:42:21.615Z,70.05
2023-04-29T07:43:21.775Z,69.95
2023-04-29T07:44:22.013Z,69.85
2023-04-29T07:45:22.128Z,70.05
2023-04-29T07:46:22.349Z,70.09
2023-04-29T07:47:22.526Z,70.29
2023-04-29T07:48:22.684Z,70.59
2023-04-29T07:49:22.855Z,70.05
2023-04-29T07:50:23.134Z,70.05
2023-04-29T07:51:23.311Z,69.85
2023-04-29T07:52:23.360Z,69.85
2023-04-29T07:53:23.662Z,69.62
2023-04-29T07:54:23.742Z,69.71
2023-04-29T07:55:23.903Z,69.71
2023-04-29T07:56:24.062Z,69.82
2023-04-29T07:57:24.241Z,69.71
2023-04-29T07:58:24.417Z,69.71
2023-04-29T07:59:24.607Z,69.51
2023-04-29T08:00:24.765Z,69.82
2023-04-29T08:01:24.949Z,69.51
2023-04-29T08:02:25.323Z,69.42
2023-04-29T08:03:25.422Z,69.42
2023-04-29T08:04:25.718Z,69.42
2023-04-29T08:05:26.089Z,69.31
2023-04-29T08:06:25.829Z,69.51
2023-04-29T08:07:26.042Z,69.14
2023-04-29T08:08:26.169Z,69.65
2023-04-29T08:09:26.369Z,69.75
2023-04-29T08:10:26.542Z,69.75
2023-04-29T08:11:26.941Z,69.85
2023-04-29T08:12:26.879Z,69.95
2023-04-29T08:13:27.057Z,69.68
2023-04-29T08:14:27.328Z,69.89
2023-04-29T08:15:27.419Z,70.29
2023-04-29T08:16:27.603Z,70.09
2023-04-29T08:17:27.777Z,69.89
2023-04-29T08:18:27.928Z,69.98
2023-04-29T08:19:28.115Z,70.29
2023-04-29T08:20:28.300Z,70.29
2023-04-29T08:21:28.482Z,70.29
2023-04-29T08:22:28.613Z,70.49
2023-04-29T08:23:28.780Z,70.49
2023-04-29T08:24:28.995Z,70.39
2023-04-29T08:25:29.141Z,70.29
2023-04-29T08:26:29.343Z,70.18
2023-04-29T08:27:29.485Z,70.29
2023-04-29T08:28:29.670Z,70.59
2023-04-29T08:29:29.892Z,70.09
2023-04-29T08:30:30.009Z,70.18
2023-04-29T08:31:30.226Z,70.49
2023-04-29T08:32:30.402Z,70.39
2023-04-29T08:33:30.525Z,70.42
2023-04-29T08:34:30.696Z,70.62
2023-04-29T08:35:30.846Z,70.62
2023-04-29T08:36:31.016Z,70.62
2023-04-29T08:37:31.201Z,70.52
2023-04-29T08:38:31.382Z,70.83
2023-04-29T08:39:31.602Z,71.03
2023-04-29T08:40:31.763Z,70.93
2023-04-29T08:41:31.901Z,70.93
2023-04-29T08:42:32.080Z,71.03
2023-04-29T08:43:32.289Z,70.93
2023-04-29T08:44:32.445Z,70.83
2023-04-29T08:45:32.703Z,70.32
2023-04-29T08:46:32.804Z,70.83
2023-04-29T08:47:33.076Z,70.52
2023-04-29T08:48:33.228Z,70.65
2023-04-29T08:49:33.335Z,70.86
2023-04-29T08:50:33.506Z,70.76
2023-04-29T08:51:33.723Z,70.96
2023-04-29T08:52:33.880Z,71.37
2023-04-29T08:53:34.039Z,71.47
2023-04-29T08:54:34.247Z,71.57
2023-04-29T08:55:34.415Z,71.91
2023-04-29T08:56:34.598Z,72.21
2023-04-29T08:57:34.756Z,72.52
2023-04-29T08:58:34.932Z,73.02
2023-04-29T08:59:35.105Z,72.96
2023-04-29T09:00:35.246Z,72.85
2023-04-29T09:01:35.470Z,72.85
2023-04-29T09:02:35.671Z,72.85
2023-04-29T09:03:35.875Z,73.05
2023-04-29T09:04:36.045Z,73.25
2023-04-29T09:05:36.278Z,73.56
2023-04-29T09:06:36.357Z,73.25
2023-04-29T09:07:36.520Z,73.36
2023-04-29T09:08:36.707Z,73.22
2023-04-29T09:09:36.901Z,73.22
2023-04-29T09:10:37.072Z,73.12
2023-04-29T09:11:37.214Z,72.92
2023-04-29T09:12:37.376Z,72.72
2023-04-29T09:13:37.548Z,73.02
2023-04-29T09:14:37.728Z,72.92
2023-04-29T09:15:37.955Z,72.75
2023-04-29T09:16:38.163Z,73.05
2023-04-29T09:17:38.335Z,73.25
2023-04-29T09:18:38.457Z,73.16
2023-04-29T09:19:38.634Z,72.75
2023-04-29T09:20:38.777Z,72.75
2023-04-29T09:21:38.947Z,72.41
2023-04-29T09:22:39.118Z,72.31
2023-04-29T09:23:39.312Z,72.52
2023-04-29T09:24:39.497Z,72.11
2023-04-29T09:25:39.687Z,72.11
2023-04-29T09:26:39.860Z,71.60
2023-04-29T09:27:40.042Z,71.70
2023-04-29T09:28:40.225Z,71.50
2023-04-29T09:29:40.380Z,71.50
2023-04-29T09:30:40.581Z,71.80
2023-04-29T09:31:40.814Z,71.50
2023-04-29T09:32:40.913Z,71.50
2023-04-29T09:33:41.084Z,71.30
2023-04-29T09:34:41.255Z,71.60
2023-04-29T09:35:41.447Z,71.20
2023-04-29T09:36:41.615Z,71.60
2023-04-29T09:37:41.807Z,71.30
2023-04-29T09:38:44.102Z,71.20
2023-04-29T09:39:42.165Z,71.40
2023-04-29T09:40:57.408Z,71.30
2023-04-29T09:41:43.474Z,71.09
2023-04-29T09:42:42.658Z,70.89
2023-04-29T09:43:42.836Z,70.79
2023-04-29T09:44:43.007Z,71.00
2023-04-29T09:45:43.232Z,70.79
2023-04-29T09:46:43.376Z,70.69
2023-04-29T09:47:43.564Z,71.00
2023-04-29T09:48:43.723Z,71.30
2023-04-29T09:49:43.887Z,71.20
2023-04-29T09:50:44.140Z,71.30
2023-04-29T09:51:44.242Z,70.89
2023-04-29T09:52:44.422Z,70.89
2023-04-29T09:53:44.610Z,70.89
2023-04-29T09:54:44.813Z,71.09
2023-04-29T09:55:44.945Z,70.89
2023-04-29T09:56:45.121Z,70.79
2023-04-29T09:57:45.380Z,70.59
2023-04-29T09:58:45.472Z,70.89
2023-04-29T09:59:45.634Z,70.79
2023-04-29T10:00:45.810Z,70.79
2023-04-29T10:01:46.009Z,70.59
2023-04-29T10:02:46.210Z,70.69
2023-04-29T10:03:46.497Z,70.89
2023-04-29T10:04:46.538Z,70.69
2023-04-29T10:05:46.656Z,71.09
2023-04-29T10:06:46.835Z,70.69
2023-04-29T10:07:47.010Z,70.76
2023-04-29T10:08:47.179Z,70.36
2023-04-29T10:09:47.491Z,70.39
2023-04-29T10:10:47.549Z,70.69
2023-04-29T10:11:47.713Z,70.56
2023-04-29T10:12:47.887Z,70.45
2023-04-29T10:13:48.063Z,69.95
2023-04-29T10:14:48.250Z,69.95
2023-04-29T10:15:48.398Z,70.05
2023-04-29T10:16:48.572Z,70.36
2023-04-29T10:17:48.736Z,70.05
2023-04-29T10:18:48.962Z,70.25
2023-04-29T10:19:49.173Z,70.36
2023-04-29T10:20:49.287Z,69.95
2023-04-29T10:21:50.080Z,70.36
2023-04-29T10:22:49.620Z,70.05
2023-04-29T10:23:49.792Z,70.05
2023-04-29T10:24:50.099Z,70.25
2023-04-29T10:25:50.133Z,69.54
2023-04-29T10:26:50.294Z,69.85
2023-04-29T10:27:50.463Z,69.74
2023-04-29T10:28:50.630Z,69.34
2023-04-29T10:29:50.817Z,69.01
2023-04-29T10:30:50.975Z,68.90
2023-04-29T10:31:51.205Z,69.10
2023-04-29T10:32:52.746Z,68.80
2023-04-29T10:33:51.480Z,68.77
2023-04-29T10:34:51.767Z,68.97
2023-04-29T10:35:51.814Z,68.50
2023-04-29T10:36:51.976Z,68.97
2023-04-29T10:37:52.146Z,68.80
2023-04-29T10:38:52.329Z,68.60
2023-04-29T10:39:52.502Z,68.70
2023-04-29T10:40:52.700Z,68.80
2023-04-29T10:41:52.874Z,68.80
2023-04-29T10:42:53.063Z,68.80
2023-04-29T10:43:53.240Z,68.90
2023-04-29T10:44:53.578Z,68.70
2023-04-29T10:45:53.598Z,68.60
2023-04-29T10:46:53.801Z,67.79
2023-04-29T10:47:53.964Z,67.79
2023-04-29T10:48:54.093Z,67.69
2023-04-29T10:49:54.272Z,67.55
2023-04-29T10:50:54.465Z,67.35
2023-04-29T10:51:54.644Z,67.66
2023-04-29T10:52:54.804Z,67.05
2023-04-29T10:53:54.963Z,67.52
2023-04-29T10:54:55.126Z,66.92
2023-04-29T10:55:55.318Z,66.92
2023-04-29T10:56:55.478Z,66.72
2023-04-29T10:57:55.650Z,66.82
2023-04-29T10:58:55.819Z,67.05
2023-04-29T10:59:55.993Z,66.92
2023-04-29T11:00:56.263Z,67.12
2023-04-29T11:01:56.322Z,66.82
2023-04-29T11:02:56.552Z,66.82
2023-04-29T11:03:56.766Z,66.92
2023-04-29T11:04:57.160Z,66.61
2023-04-29T11:05:57.041Z,67.02
2023-04-29T11:06:57.219Z,66.21
2023-04-29T11:07:57.375Z,65.81
2023-04-29T11:08:57.581Z,65.78
2023-04-29T11:09:57.753Z,65.98
2023-04-29T11:10:57.896Z,65.54
2023-04-29T11:11:58.071Z,64.64
2023-04-29T11:12:58.310Z,64.40
2023-04-29T11:13:58.412Z,63.90
2023-04-29T11:14:58.610Z,63.67
2023-04-29T11:15:58.843Z,63.56
2023-04-29T11:16:59.045Z,63.67
2023-04-29T11:17:59.192Z,63.53
2023-04-29T11:18:59.318Z,63.53
2023-04-29T11:19:59.513Z,63.43
2023-04-29T11:20:59.664Z,63.00
2023-04-29T11:21:59.832Z,62.60
2023-04-29T11:23:00.020Z,62.09
2023-04-29T11:24:00.205Z,62.37
2023-04-29T11:25:00.382Z,62.57
2023-04-29T11:26:00.547Z,61.43
2023-04-29T11:27:00.752Z,61.43
2023-04-29T11:28:00.893Z,60.80
2023-04-29T11:29:01.075Z,60.77
2023-04-29T11:30:01.271Z,60.47
2023-04-29T11:31:01.492Z,59.96
2023-04-29T11:32:01.700Z,59.43
2023-04-29T11:33:01.875Z,58.90
2023-04-29T11:34:01.961Z,58.09
2023-04-29T11:35:02.147Z,58.17
2023-04-29T11:36:02.286Z,57.67
2023-04-29T11:37:02.509Z,57.44
2023-04-29T11:38:02.653Z,57.14
2023-04-29T11:39:02.823Z,56.51
2023-04-29T11:40:03.027Z,57.39
2023-04-29T11:41:03.156Z,57.08
2023-04-29T11:42:03.349Z,56.26
2023-04-29T11:43:03.508Z,55.43
2023-04-29T11:44:03.698Z,54.93
2023-04-29T11:45:03.879Z,55.32
2023-04-29T11:46:04.076Z,54.62
2023-04-29T11:47:04.203Z,54.95
2023-04-29T11:48:04.383Z,55.08
2023-04-29T11:49:04.534Z,55.80
2023-04-29T11:50:04.732Z,56.16
2023-04-29T11:51:04.869Z,56.49
2023-04-29T11:52:05.058Z,56.62
2023-04-29T11:53:05.206Z,57.62
2023-04-29T11:54:06.946Z,58.35
2023-04-29T11:55:05.557Z,58.35
2023-04-29T11:56:05.741Z,58.48
2023-04-29T11:57:05.893Z,59.19
2023-04-29T11:58:06.053Z,59.28
2023-04-29T11:59:06.234Z,60.09
2023-04-29T12:00:08.685Z,59.79
2023-04-29T12:01:06.578Z,60.69
2023-04-29T12:02:07.017Z,59.69
2023-04-29T12:03:07.103Z,59.89
2023-04-29T12:04:07.501Z,60.39
2023-04-29T12:05:07.646Z,60.12
2023-04-29T12:06:08.426Z,60.52
2023-04-29T12:07:07.620Z,60.72
2023-04-29T12:08:07.795Z,60.42
2023-04-29T12:09:07.970Z,60.22
2023-04-29T12:10:08.137Z,60.22
2023-04-29T12:11:08.299Z,60.72
2023-04-29T12:12:08.494Z,60.12
2023-04-29T12:13:10.244Z,59.79
2023-04-29T12:14:08.849Z,59.89
2023-04-29T12:15:08.979Z,59.36
2023-04-29T12:16:09.212Z,59.06
2023-04-29T12:17:09.329Z,58.73
2023-04-29T12:18:09.560Z,58.25
2023-04-29T12:19:09.739Z,58.45
2023-04-29T12:20:09.951Z,57.65
2023-04-29T12:21:10.012Z,57.95
2023-04-29T12:22:10.204Z,57.24
2023-04-29T12:23:10.385Z,58.05
2023-04-29T12:24:10.590Z,58.02
2023-04-29T12:25:10.728Z,58.02
2023-04-29T12:26:10.889Z,57.50
2023-04-29T12:27:11.116Z,56.49
2023-04-29T12:28:11.246Z,56.71
2023-04-29T12:29:11.422Z,56.92
2023-04-29T12:30:11.570Z,56.11
2023-04-29T12:31:11.761Z,57.09
2023-04-29T12:32:11.928Z,56.69
2023-04-29T12:33:12.184Z,56.66
2023-04-29T12:34:12.253Z,56.86
2023-04-29T12:35:12.431Z,56.36
2023-04-29T12:36:12.610Z,55.83
2023-04-29T12:37:12.798Z,55.73
2023-04-29T12:38:12.984Z,55.23
2023-04-29T12:39:13.167Z,55.63
2023-04-29T12:40:13.426Z,55.76
2023-04-29T12:41:13.529Z,55.76
2023-04-29T12:42:13.724Z,55.66
2023-04-29T12:43:13.866Z,56.03
2023-04-29T12:44:14.109Z,56.10
2023-04-29T12:45:14.244Z,55.58
2023-04-29T12:46:14.393Z,55.68
2023-04-29T12:47:14.603Z,55.05
2023-04-29T12:48:25.360Z,54.72
2023-04-29T12:49:15.928Z,54.12
2023-04-29T12:50:15.118Z,53.30
2023-04-29T12:51:15.299Z,53.59
2023-04-29T12:52:15.466Z,53.09
2023-04-29T12:53:15.621Z,52.87
2023-04-29T12:54:15.814Z,52.87